createdAt,value
2019-01-13T00:00:41.132Z,1.77
2019-01-13T00:03:10.438Z,1.67
2019-01-13T00:05:39.709Z,2.20
2019-01-13T00:08:09.006Z,2.20
2019-01-13T00:10:38.213Z,2.50
2019-01-13T00:13:07.429Z,2.30
2019-01-13T00:15:36.719Z,2.57
2019-01-13T00:18:05.938Z,2.03
2019-01-13T00:20:35.133Z,2.20
2019-01-13T00:23:04.352Z,2.47
2019-01-13T00:25:33.544Z,2.23
2019-01-13T00:28:02.825Z,1.80
2019-01-13T00:30:51.473Z,2.23
2019-01-13T00:33:20.687Z,2.00
2019-01-13T00:35:49.912Z,1.63
2019-01-13T00:38:19.108Z,1.87
2019-01-13T00:40:48.311Z,1.80
2019-01-13T00:43:17.866Z,2.20
2019-01-13T00:45:47.179Z,2.87
2019-01-13T00:48:16.397Z,3.40
2019-01-13T00:50:45.882Z,3.47
2019-01-13T00:53:15.164Z,4.10
2019-01-13T00:55:44.377Z,3.83
2019-01-13T00:58:13.594Z,4.43
2019-01-13T01:00:42.884Z,4.97
2019-01-13T01:03:12.590Z,4.90
2019-01-13T01:05:41.808Z,4.37
2019-01-13T01:08:11.010Z,4.43
2019-01-13T01:10:40.610Z,4.90
2019-01-13T01:13:10.810Z,5.27
2019-01-13T01:15:40.014Z,5.40
2019-01-13T01:18:09.225Z,5.33
2019-01-13T01:20:38.448Z,5.73
2019-01-13T01:23:07.707Z,6.13
2019-01-13T01:25:36.999Z,6.30
2019-01-13T01:28:06.260Z,6.17
2019-01-13T01:30:35.549Z,6.10
2019-01-13T01:33:04.741Z,5.70
2019-01-13T01:35:33.952Z,6.10
2019-01-13T01:38:03.137Z,6.10
2019-01-13T01:40:32.354Z,5.63
2019-01-13T01:43:01.570Z,6.13
2019-01-13T01:45:30.775Z,5.37
2019-01-13T01:47:59.989Z,5.53
2019-01-13T01:50:29.176Z,5.53
2019-01-13T01:52:58.402Z,5.60
2019-01-13T01:55:27.689Z,6.33
2019-01-13T01:57:56.948Z,5.97
2019-01-13T02:00:26.140Z,5.83
2019-01-13T02:02:55.351Z,5.50
2019-01-13T02:05:24.538Z,6.10
2019-01-13T02:07:53.818Z,5.90
2019-01-13T02:10:23.019Z,5.93
2019-01-13T02:12:52.235Z,5.67
2019-01-13T02:15:24.095Z,5.77
2019-01-13T02:17:53.731Z,6.30
2019-01-13T02:20:23.462Z,5.77
2019-01-13T02:22:52.742Z,6.60
2019-01-13T02:25:24.398Z,5.80
2019-01-13T02:27:53.589Z,6.30
2019-01-13T02:30:24.651Z,6.23
2019-01-13T02:32:53.833Z,6.60
2019-01-13T02:37:59.042Z,5.63
2019-01-13T02:40:28.218Z,6.17
2019-01-13T02:42:57.366Z,6.53
2019-01-13T02:45:27.411Z,6.20
2019-01-13T02:47:56.847Z,6.13
2019-01-13T02:50:27.549Z,6.90
2019-01-13T02:52:56.719Z,6.90
2019-01-13T02:55:25.897Z,6.00
2019-01-13T02:57:55.053Z,5.67
2019-01-13T03:00:25.477Z,6.87
2019-01-13T03:02:54.829Z,6.50
2019-01-13T03:05:24.264Z,6.70
2019-01-13T03:07:53.607Z,6.27
2019-01-13T03:10:23.620Z,6.50
2019-01-13T03:12:52.976Z,6.93
2019-01-13T03:15:23.206Z,6.37
2019-01-13T03:17:52.688Z,6.73
2019-01-13T03:20:22.481Z,7.03
2019-01-13T03:22:51.826Z,6.83
2019-01-13T03:25:21.724Z,7.10
2019-01-13T03:27:50.903Z,6.70
2019-01-13T03:30:23.433Z,7.20
2019-01-13T03:32:52.615Z,7.33
2019-01-13T03:35:21.845Z,7.10
2019-01-13T03:37:51.182Z,7.87
2019-01-13T03:40:22.004Z,6.40
2019-01-13T03:42:51.339Z,6.67
2019-01-13T03:45:20.503Z,7.70
2019-01-13T03:47:49.666Z,7.00
2019-01-13T03:50:21.236Z,6.53
2019-01-13T03:52:53.299Z,7.00
2019-01-13T03:55:22.877Z,7.63
2019-01-13T03:57:52.027Z,6.90
2019-01-13T04:00:23.788Z,8.10
2019-01-13T04:02:53.035Z,6.83
2019-01-13T04:05:22.200Z,7.17
2019-01-13T04:07:51.464Z,8.00
2019-01-13T04:10:20.650Z,7.50
2019-01-13T04:12:50.028Z,7.07
2019-01-13T04:15:28.175Z,7.67
2019-01-13T04:17:58.109Z,7.37
2019-01-13T04:20:27.292Z,7.80
2019-01-13T04:22:56.450Z,6.63
2019-01-13T04:25:25.607Z,6.77
2019-01-13T04:27:55.855Z,6.73
2019-01-13T04:30:25.084Z,7.40
2019-01-13T04:32:54.270Z,6.77
2019-01-13T04:35:23.742Z,6.07
2019-01-13T04:37:52.928Z,7.77
2019-01-13T04:40:22.085Z,6.33
2019-01-13T04:42:51.264Z,6.77
2019-01-13T04:45:20.419Z,7.50
2019-01-13T04:47:49.609Z,6.50
2019-01-13T04:50:18.766Z,7.10
2019-01-13T04:52:47.936Z,7.13
2019-01-13T04:55:17.107Z,7.77
2019-01-13T04:57:46.262Z,6.50
2019-01-13T05:00:22.242Z,7.67
2019-01-13T05:02:51.442Z,6.90
2019-01-13T05:05:21.771Z,7.07
2019-01-13T05:07:51.327Z,7.50
2019-01-13T05:10:21.636Z,7.60
2019-01-13T05:12:50.803Z,7.20
2019-01-13T05:15:19.975Z,7.73
2019-01-13T05:17:49.130Z,7.73
2019-01-13T05:20:19.977Z,7.93
2019-01-13T05:22:49.200Z,8.70
2019-01-13T05:25:18.360Z,7.60
2019-01-13T05:27:48.818Z,7.70
2019-01-13T05:30:21.748Z,8.70
2019-01-13T05:32:50.903Z,8.27
2019-01-13T05:35:20.154Z,8.37
2019-01-13T05:37:49.325Z,9.60
2019-01-13T05:40:19.553Z,9.10
2019-01-13T05:42:48.771Z,9.03
2019-01-13T05:45:18.798Z,9.63
2019-01-13T05:47:47.979Z,9.47
2019-01-13T05:50:17.588Z,9.17
2019-01-13T05:52:47.922Z,9.70
2019-01-13T05:55:17.082Z,10.90
2019-01-13T05:57:46.260Z,9.43
2019-01-13T06:00:18.591Z,9.70
2019-01-13T06:02:47.767Z,10.30
2019-01-13T06:05:16.958Z,11.13
2019-01-13T06:07:46.121Z,9.90
2019-01-13T06:10:17.535Z,10.17
2019-01-13T06:12:46.714Z,10.27
2019-01-13T06:15:20.883Z,10.00
2019-01-13T06:17:52.687Z,17.87
2019-01-13T06:20:23.116Z,10.37
2019-01-13T06:22:52.278Z,10.30
2019-01-13T06:25:21.463Z,9.67
2019-01-13T06:27:50.648Z,10.17
2019-01-13T06:30:21.159Z,10.33
2019-01-13T06:32:50.715Z,11.90
2019-01-13T06:35:20.123Z,10.47
2019-01-13T06:37:49.306Z,10.17
2019-01-13T06:40:22.009Z,10.13
2019-01-13T06:42:51.248Z,10.20
2019-01-13T06:45:22.079Z,9.20
2019-01-13T06:47:51.605Z,8.87
2019-01-13T06:50:21.050Z,9.10
2019-01-13T06:52:50.207Z,8.87
2019-01-13T06:55:19.390Z,8.80
2019-01-13T06:57:48.561Z,9.30
2019-01-13T07:00:22.755Z,9.53
2019-01-13T07:02:52.102Z,8.30
2019-01-13T07:05:21.290Z,8.30
2019-01-13T07:07:50.446Z,8.20
2019-01-13T07:10:19.703Z,7.77
2019-01-13T07:12:49.175Z,8.23
2019-01-13T07:15:19.395Z,8.07
2019-01-13T07:17:48.553Z,7.37
2019-01-13T07:20:18.769Z,8.47
2019-01-13T07:22:48.529Z,7.80
2019-01-13T07:25:17.932Z,8.03
2019-01-13T07:27:47.103Z,7.30
2019-01-13T07:30:22.253Z,6.67
2019-01-13T07:32:52.808Z,7.20
2019-01-13T07:35:22.151Z,6.60
2019-01-13T07:37:51.931Z,7.30
2019-01-13T07:40:21.177Z,6.80
2019-01-13T07:42:52.384Z,6.37
2019-01-13T07:45:22.675Z,6.60
2019-01-13T07:47:51.851Z,6.10
2019-01-13T07:50:21.007Z,6.37
2019-01-13T07:52:50.181Z,5.90
2019-01-13T07:55:20.495Z,6.00
2019-01-13T07:57:49.731Z,6.37
2019-01-13T08:00:27.074Z,5.90
2019-01-13T08:02:56.404Z,5.57
2019-01-13T08:05:25.651Z,6.00
2019-01-13T08:07:54.834Z,5.57
2019-01-13T08:10:24.163Z,5.47
2019-01-13T08:12:53.409Z,6.57
2019-01-13T08:15:22.590Z,5.90
2019-01-13T08:17:51.739Z,5.30
2019-01-13T08:20:25.613Z,4.90
2019-01-13T08:22:54.756Z,5.17
2019-01-13T08:25:24.599Z,4.53
2019-01-13T08:27:54.040Z,4.40
2019-01-13T08:30:23.643Z,4.50
2019-01-13T08:32:52.976Z,4.33
2019-01-13T08:35:22.154Z,3.90
2019-01-13T08:37:51.302Z,3.67
2019-01-13T08:40:20.755Z,3.03
2019-01-13T08:42:50.253Z,3.80
2019-01-13T08:45:20.568Z,3.17
2019-01-13T08:47:49.741Z,3.40
2019-01-13T08:50:20.813Z,3.33
2019-01-13T08:52:50.167Z,3.50
2019-01-13T08:55:19.320Z,3.27
2019-01-13T08:57:48.623Z,2.80
2019-01-13T09:00:26.088Z,3.13
2019-01-13T09:02:55.259Z,3.00
2019-01-13T09:05:25.171Z,3.10
2019-01-13T09:07:54.351Z,3.03
2019-01-13T09:10:23.503Z,3.23
2019-01-13T09:12:56.969Z,3.10
2019-01-13T09:15:25.325Z,2.83
2019-01-13T09:17:54.772Z,3.00
2019-01-13T09:20:28.117Z,2.70
2019-01-13T09:22:58.438Z,3.13
2019-01-13T09:25:27.795Z,3.23
2019-01-13T09:27:56.960Z,3.30
2019-01-13T09:30:27.874Z,2.90
2019-01-13T09:32:57.302Z,2.97
2019-01-13T09:35:26.747Z,2.60
2019-01-13T09:37:55.906Z,3.00
2019-01-13T09:40:27.218Z,2.77
2019-01-13T09:42:56.831Z,2.83
2019-01-13T09:45:26.850Z,2.73
2019-01-13T09:47:56.021Z,2.47
2019-01-13T09:50:25.351Z,2.73
2019-01-13T09:52:54.526Z,2.73
2019-01-13T09:55:25.032Z,2.90
2019-01-13T09:57:54.219Z,2.40
2019-01-13T10:00:26.186Z,2.40
2019-01-13T10:02:55.651Z,2.80
2019-01-13T10:05:24.992Z,2.50
2019-01-13T10:07:54.147Z,2.20
2019-01-13T10:10:23.338Z,1.90
2019-01-13T10:12:52.692Z,1.90
2019-01-13T10:15:26.776Z,2.40
2019-01-13T10:17:55.944Z,2.20
2019-01-13T10:20:25.098Z,2.33
2019-01-13T10:22:55.346Z,1.73
2019-01-13T10:25:25.088Z,2.30
2019-01-13T10:27:54.283Z,2.30
2019-01-13T10:30:28.322Z,2.20
2019-01-13T10:32:57.494Z,1.90
2019-01-13T10:35:26.723Z,1.93
2019-01-13T10:37:56.163Z,1.83
2019-01-13T10:40:28.824Z,1.70
2019-01-13T10:42:58.160Z,1.90
2019-01-13T10:45:27.603Z,1.60
2019-01-13T10:47:56.758Z,1.73
2019-01-13T10:50:28.914Z,1.63
2019-01-13T10:52:59.921Z,1.90
2019-01-13T10:55:29.072Z,2.00
2019-01-13T10:57:58.515Z,1.60
2019-01-13T11:00:34.474Z,1.83
2019-01-13T11:03:03.907Z,1.83
2019-01-13T11:05:33.068Z,1.73
2019-01-13T11:08:02.643Z,1.70
2019-01-13T11:10:32.714Z,1.77
2019-01-13T11:13:01.900Z,1.70
2019-01-13T11:15:31.063Z,1.90
2019-01-13T11:18:00.223Z,1.57
2019-01-13T11:20:32.338Z,1.80
2019-01-13T11:23:01.947Z,1.50
2019-01-13T11:25:31.378Z,1.50
2019-01-13T11:28:00.792Z,1.50
2019-01-13T11:30:29.963Z,1.20
2019-01-13T11:32:59.127Z,1.33
2019-01-13T11:35:28.323Z,1.60
2019-01-13T11:37:57.594Z,1.87
2019-01-13T11:40:28.326Z,2.10
2019-01-13T11:42:57.498Z,1.63
2019-01-13T11:45:26.686Z,1.70
2019-01-13T11:47:55.843Z,1.40
2019-01-13T11:50:25.967Z,1.43
2019-01-13T11:52:55.300Z,1.60
2019-01-13T11:55:24.495Z,1.23
2019-01-13T11:57:53.705Z,1.47
2019-01-13T12:00:28.974Z,1.70
2019-01-13T12:02:58.841Z,1.43
2019-01-13T12:05:28.014Z,1.40
2019-01-13T12:07:57.166Z,1.50
2019-01-13T12:10:26.353Z,1.43
2019-01-13T12:12:55.583Z,1.47
2019-01-13T12:15:31.415Z,1.60
2019-01-13T12:18:00.582Z,1.27
2019-01-13T12:20:30.063Z,1.60
2019-01-13T12:22:59.291Z,1.20
2019-01-13T12:25:28.480Z,1.70
2019-01-13T12:27:57.635Z,1.50
2019-01-13T12:30:28.979Z,1.57
2019-01-13T12:32:58.849Z,1.40
2019-01-13T12:35:28.037Z,1.63
2019-01-13T12:38:00.935Z,1.77
2019-01-13T12:40:31.577Z,1.50
2019-01-13T12:43:00.732Z,1.20
2019-01-13T12:45:29.938Z,2.13
2019-01-13T12:47:59.179Z,1.90
2019-01-13T12:50:29.690Z,2.40
2019-01-13T12:52:58.878Z,2.20
2019-01-13T12:55:28.036Z,1.93
2019-01-13T12:57:57.207Z,2.30
2019-01-13T13:00:26.463Z,1.63
2019-01-13T13:02:55.703Z,1.60
2019-01-13T13:05:24.887Z,1.27
2019-01-13T13:07:54.045Z,1.40
2019-01-13T13:10:31.896Z,1.43
2019-01-13T13:13:01.087Z,1.67
2019-01-13T13:15:30.436Z,2.40
2019-01-13T13:17:59.613Z,1.77
2019-01-13T13:20:28.788Z,1.77
2019-01-13T13:22:58.325Z,2.00
2019-01-13T13:25:31.869Z,1.97
2019-01-13T13:27:58.424Z,1.70
2019-01-13T13:30:28.243Z,2.10
2019-01-13T13:32:57.473Z,1.70
2019-01-13T13:35:26.648Z,1.80
2019-01-13T13:37:56.074Z,1.70
2019-01-13T13:40:26.782Z,1.87
2019-01-13T13:42:56.211Z,2.07
2019-01-13T13:45:25.382Z,2.13
2019-01-13T13:47:54.559Z,1.70
2019-01-13T13:50:25.358Z,1.57
2019-01-13T13:52:54.717Z,1.90
2019-01-13T13:55:23.867Z,2.23
2019-01-13T13:57:53.410Z,2.63
2019-01-13T14:00:25.192Z,2.57
2019-01-13T14:02:55.472Z,2.73
2019-01-13T14:05:24.644Z,1.97
2019-01-13T14:07:54.847Z,2.10
2019-01-13T14:10:29.990Z,2.10
2019-01-13T14:12:59.150Z,2.20
2019-01-13T14:15:29.273Z,2.10
2019-01-13T14:17:58.524Z,2.33
2019-01-13T14:20:27.671Z,2.60
2019-01-13T14:22:57.908Z,2.13
2019-01-13T14:25:27.068Z,2.40
2019-01-13T14:27:56.240Z,2.63
2019-01-13T14:30:27.334Z,2.97
2019-01-13T14:32:56.995Z,2.77
2019-01-13T14:35:26.318Z,2.60
2019-01-13T14:37:55.499Z,2.60
2019-01-13T14:40:25.714Z,2.60
2019-01-13T14:42:55.166Z,2.30
2019-01-13T14:45:25.323Z,2.30
2019-01-13T14:47:55.563Z,2.50
2019-01-13T14:50:27.374Z,2.60
2019-01-13T14:52:56.555Z,2.53
2019-01-13T14:55:25.727Z,2.50
2019-01-13T14:57:54.875Z,2.27
2019-01-13T15:00:29.611Z,1.73
2019-01-13T15:02:58.930Z,2.00
2019-01-13T15:05:28.116Z,1.63
2019-01-13T15:07:57.300Z,2.30
2019-01-13T15:10:26.536Z,1.73
2019-01-13T15:12:55.696Z,1.80
2019-01-13T15:15:24.858Z,1.73
2019-01-13T15:17:54.034Z,1.60
2019-01-13T15:20:25.212Z,1.67
2019-01-13T15:22:54.381Z,1.80
2019-01-13T15:25:26.481Z,1.50
2019-01-13T15:27:55.651Z,1.70
2019-01-13T15:30:27.344Z,1.77
2019-01-13T15:32:56.558Z,1.37
2019-01-13T15:35:25.691Z,1.60
2019-01-13T15:37:54.881Z,1.53
2019-01-13T15:40:24.233Z,1.63
2019-01-13T15:42:53.657Z,1.50
2019-01-13T15:45:22.838Z,1.40
2019-01-13T15:47:51.995Z,1.80
2019-01-13T15:50:23.793Z,1.47
2019-01-13T15:52:52.953Z,1.13
2019-01-13T15:55:22.377Z,1.20
2019-01-13T15:57:51.547Z,1.70
2019-01-13T16:00:23.921Z,1.20
2019-01-13T16:02:53.098Z,0.90
2019-01-13T16:05:22.498Z,1.20
2019-01-13T16:07:51.689Z,1.00
2019-01-13T16:10:22.978Z,0.97
2019-01-13T16:12:52.454Z,0.90
2019-01-13T16:15:21.712Z,1.00
2019-01-13T16:17:51.138Z,0.90
2019-01-13T16:20:25.537Z,0.70
2019-01-13T16:22:54.685Z,0.50
2019-01-13T16:25:23.862Z,1.00
2019-01-13T16:27:53.026Z,0.97
2019-01-13T16:30:25.631Z,1.07
2019-01-13T16:32:54.820Z,1.03
2019-01-13T16:35:24.256Z,0.70
2019-01-13T16:37:53.430Z,0.80
2019-01-13T16:40:23.831Z,0.70
2019-01-13T16:42:53.055Z,0.83
2019-01-13T16:45:22.242Z,1.00
2019-01-13T16:47:52.494Z,0.87
2019-01-13T16:50:23.517Z,0.90
2019-01-13T16:52:54.377Z,1.00
2019-01-13T16:55:24.645Z,0.90
2019-01-13T16:57:53.941Z,0.90
2019-01-13T17:00:25.161Z,0.97
2019-01-13T17:02:54.345Z,1.00
2019-01-13T17:05:24.771Z,0.80
2019-01-13T17:07:54.289Z,0.87
2019-01-13T17:10:25.060Z,0.90
2019-01-13T17:12:54.543Z,0.70
2019-01-13T17:15:26.819Z,0.90
2019-01-13T17:17:57.077Z,1.00
2019-01-13T17:20:26.225Z,0.97
2019-01-13T17:22:55.778Z,0.50
2019-01-13T17:25:27.133Z,0.70
2019-01-13T17:27:56.512Z,0.60
2019-01-13T17:30:30.699Z,0.90
2019-01-13T17:32:59.889Z,0.83
2019-01-13T17:35:30.645Z,0.60
2019-01-13T17:37:59.826Z,0.80
2019-01-13T17:40:29.003Z,0.67
2019-01-13T17:42:58.162Z,0.60
2019-01-13T17:45:29.390Z,0.70
2019-01-13T17:47:58.604Z,0.70
2019-01-13T17:50:28.503Z,0.60
2019-01-13T17:52:57.875Z,0.73
2019-01-13T17:55:28.695Z,0.70
2019-01-13T17:57:57.884Z,0.80
2019-01-13T18:00:32.571Z,0.80
2019-01-13T18:03:04.873Z,0.77
2019-01-13T18:05:34.064Z,0.80
2019-01-13T18:08:03.218Z,0.80
2019-01-13T18:10:32.403Z,0.90
2019-01-13T18:13:01.558Z,0.77
2019-01-13T18:15:30.730Z,0.97
2019-01-13T18:17:59.888Z,1.57
2019-01-13T18:20:29.057Z,0.90
2019-01-13T18:22:58.229Z,1.13
2019-01-13T18:25:27.402Z,1.03
2019-01-13T18:27:57.548Z,1.80
2019-01-13T18:30:27.968Z,1.43
2019-01-13T18:32:57.382Z,1.27
2019-01-13T18:35:26.568Z,1.60
2019-01-13T18:37:55.721Z,1.47
2019-01-13T18:40:25.697Z,1.50
2019-01-13T18:42:54.875Z,1.70
2019-01-13T18:45:24.060Z,1.80
2019-01-13T18:47:53.248Z,1.60
2019-01-13T18:50:24.808Z,1.20
2019-01-13T18:53:03.088Z,1.50
2019-01-13T18:55:32.255Z,1.80
2019-01-13T18:58:01.424Z,2.00
2019-01-13T19:00:30.661Z,1.40
2019-01-13T19:02:59.835Z,2.13
2019-01-13T19:05:29.571Z,1.80
2019-01-13T19:07:59.707Z,2.10
2019-01-13T19:10:37.734Z,2.33
2019-01-13T19:13:15.695Z,1.80
2019-01-13T19:15:47.497Z,1.70
2019-01-13T19:18:16.674Z,1.63
2019-01-13T19:20:46.899Z,1.90
2019-01-13T19:23:16.207Z,1.83
2019-01-13T19:25:45.393Z,2.10
2019-01-13T19:28:14.626Z,2.07
2019-01-13T19:30:43.807Z,2.10
2019-01-13T19:33:12.978Z,2.10
2019-01-13T19:35:42.149Z,2.23
2019-01-13T19:38:11.318Z,3.53
2019-01-13T19:40:40.477Z,2.70
2019-01-13T19:43:09.664Z,2.10
2019-01-13T19:45:38.902Z,2.00
2019-01-13T19:48:08.375Z,2.30
2019-01-13T19:50:37.550Z,2.17
2019-01-13T19:53:06.992Z,2.40
2019-01-13T19:55:36.495Z,2.13
2019-01-13T19:58:05.664Z,2.20
2019-01-13T20:00:34.851Z,2.10
2019-01-13T20:03:04.352Z,2.20
2019-01-13T20:05:34.183Z,1.93
2019-01-13T20:08:04.056Z,2.33
2019-01-13T20:10:33.234Z,2.10
2019-01-13T20:13:02.445Z,2.30
2019-01-13T20:15:31.714Z,2.27
2019-01-13T20:18:00.875Z,2.60
2019-01-13T20:20:30.054Z,2.50
2019-01-13T20:22:59.223Z,2.20
2019-01-13T20:25:28.764Z,2.53
2019-01-13T20:27:57.968Z,3.67
2019-01-13T20:30:30.033Z,2.30
2019-01-13T20:32:59.436Z,2.17
2019-01-13T20:35:28.599Z,2.83
2019-01-13T20:37:57.797Z,1.93
2019-01-13T20:40:26.964Z,1.60
2019-01-13T20:42:56.148Z,1.30
2019-01-13T20:45:31.413Z,1.70
2019-01-13T20:48:00.587Z,1.60
2019-01-13T20:50:29.840Z,1.87
2019-01-13T20:52:59.349Z,1.30
2019-01-13T20:55:28.856Z,2.67
2019-01-13T20:57:58.031Z,2.13
2019-01-13T21:00:28.711Z,2.27
2019-01-13T21:02:57.897Z,1.80
2019-01-13T21:05:27.282Z,2.80
2019-01-13T21:07:56.565Z,2.07
2019-01-13T21:10:26.097Z,1.60
2019-01-13T21:12:55.442Z,1.23
2019-01-13T21:15:30.196Z,1.07
2019-01-13T21:18:00.461Z,0.93
2019-01-13T21:20:29.634Z,1.57
2019-01-13T21:22:58.860Z,1.23
2019-01-13T21:25:28.347Z,1.03
2019-01-13T21:27:59.164Z,0.87
2019-01-13T21:30:33.878Z,0.93
2019-01-13T21:33:03.070Z,0.80
2019-01-13T21:35:34.389Z,0.80
2019-01-13T21:38:03.663Z,0.93
2019-01-13T21:40:32.847Z,0.70
2019-01-13T21:43:02.994Z,0.93
2019-01-13T21:45:32.186Z,0.90
2019-01-13T21:48:02.421Z,0.93
2019-01-13T21:50:31.924Z,1.10
2019-01-13T21:53:01.427Z,0.83
2019-01-13T21:55:30.591Z,0.87
2019-01-13T21:57:59.784Z,0.80
2019-01-13T22:00:29.006Z,0.70
2019-01-13T22:02:58.353Z,1.00
2019-01-13T22:05:28.746Z,1.00
2019-01-13T22:07:58.997Z,0.90
2019-01-13T22:10:28.166Z,1.20
2019-01-13T22:12:57.349Z,1.00
2019-01-13T22:15:26.543Z,0.87
2019-01-13T22:17:55.774Z,1.23
2019-01-13T22:20:25.003Z,0.93
2019-01-13T22:22:54.185Z,1.20
2019-01-13T22:25:23.366Z,1.47
2019-01-13T22:27:52.596Z,1.30
2019-01-13T22:30:23.225Z,1.13
2019-01-13T22:32:52.699Z,1.20
2019-01-13T22:35:21.865Z,1.40
2019-01-13T22:37:55.556Z,1.60
2019-01-13T22:40:21.926Z,1.43
2019-01-13T22:42:51.090Z,1.90
2019-01-13T22:45:22.290Z,2.00
2019-01-13T22:47:51.541Z,1.50
2019-01-13T22:50:21.004Z,2.00
2019-01-13T22:52:50.273Z,1.70
2019-01-13T22:55:19.461Z,2.37
2019-01-13T22:57:48.622Z,2.03
2019-01-13T23:00:50.180Z,2.07
2019-01-13T23:03:20.282Z,2.07
2019-01-13T23:05:55.638Z,2.07
2019-01-13T23:08:20.423Z,2.30
2019-01-13T23:10:49.933Z,2.73
2019-01-13T23:13:19.090Z,3.03
2019-01-13T23:15:48.282Z,2.40
2019-01-13T23:18:17.456Z,2.10
2019-01-13T23:20:46.606Z,2.10
2019-01-13T23:23:15.783Z,1.70
2019-01-13T23:25:44.966Z,2.30
2019-01-13T23:28:14.149Z,2.47
2019-01-13T23:30:43.395Z,2.40
2019-01-13T23:33:12.568Z,2.33
2019-01-13T23:35:41.740Z,2.13
2019-01-13T23:38:10.910Z,2.43
2019-01-13T23:40:40.787Z,2.23
2019-01-13T23:43:11.177Z,2.57
2019-01-13T23:45:40.352Z,2.20
2019-01-13T23:48:09.516Z,2.57
2019-01-13T23:50:38.683Z,1.50
2019-01-13T23:53:07.839Z,1.97
2019-01-13T23:55:37.019Z,2.30
2019-01-13T23:58:06.192Z,2.67
